Latest Coastal Weather Observations for Robe Airport

IDV60701

Issued at 4:15 am EST Monday 22 September 2014 (issued every 10 minutes, with the page automatically refreshed every 10 minutes)

About coastal observations | Map of coastal stations | Coastal observations for VIC | Marine services | Other Formats
Station Details ID: 026105 Name: ROBE AIRFIELD Lat: -37.18 Lon: 139.81 Height: 3.0 m
Data from the previous 72 hours. | See also: Recent months at Robe Airport
Date/Time
EST
Temp

°C
Wind Pressure Rain
since 9am
mm
Weather Cloud Vis
km
Sea
Height
m
Swell
Dir
 
Speed
knots
Gust
knots
hPa Trend Height
m
Period
s
Dir
22/04:00am 3.8 NE 5 6 1026.3 - 0.0 - - - - - - -
22/03:30am 3.6 ENE 5 6 1026.4 - 0.0 - - - - - - -
22/03:00am 4.0 ENE 4 5 1026.6 - 0.0 - - - - - - -
22/02:30am 4.6 ENE 3 5 1027.1 - 0.0 - - - - - - -
22/02:00am 4.9 ENE 2 3 1027.2 - 0.0 - - - - - - -
22/01:30am 5.4 ENE 2 4 1027.3 - 0.0 - - - - - - -
22/01:00am 5.9 E 1 5 1027.3 - 0.0 - - - - - - -
22/12:30am 6.2 ENE 0 1 1027.4 - 0.0 - - - - - - -
22/12:00am 6.3 E 1 2 1027.5 - 0.0 - - - - - - -
 
Date/Time
EST
Temp

°C
Wind Pressure Rain
since 9am
mm
Weather Cloud Vis
km
Sea
Height
m
Swell
Dir
 
Speed
knots
Gust
knots
hPa Trend Height
m
Period
s
Dir
21/11:30pm 6.1 E 2 3 1027.9 - 0.0 - - - - - - -
21/11:00pm 6.0 SE 3 5 1028.1 - 0.0 - - - - - - -
21/10:30pm 5.8 SE 2 3 1028.3 - 0.0 - - - - - - -
21/10:00pm 6.0 SE 2 2 1028.6 - 0.0 - - - - - - -
21/09:30pm 6.5 SE 3 3 1028.9 - 0.0 - - - - - - -
21/09:00pm 8.1 SE 3 4 1028.9 - 0.0 - - - - - - -
21/08:30pm 8.2 SSE 4 5 1029.0 - 0.0 - - - - - - -
21/08:00pm 8.4 SSE 3 3 1029.0 - 0.0 - - - - - - -
21/07:30pm 9.4 S 5 6 1028.9 - 0.0 - - - - - - -
21/07:00pm 10.5 S 5 6 1028.8 - 0.0 - - - - - - -
21/06:30pm 12.0 S 5 6 1028.6 - 0.0 - - - - - - -
21/06:00pm 13.8 S 6 7 1028.7 - 0.0 - - - - - - -
21/05:30pm 14.7 S 8 10 1028.6 - 0.0 - - - - - - -
21/05:00pm 15.6 S 8 11 1028.6 - 0.0 - - - - - - -
21/04:30pm 15.7 S 10 13 1028.5 - 0.0 - - - - - - -
21/04:00pm 17.1 SSW 7 9 1028.4 - 0.0 - - - - - - -
21/03:30pm 17.2 SSE 4 9 1028.8 - 0.0 - - - - - - -
21/03:00pm 16.9 S 5 8 1028.9 - 0.0 - - - - - - -
21/02:30pm 16.9 S 5 8 1029.3 - 0.0 - - - - - - -
21/02:00pm 16.4 S 5 8 1029.9 - 0.0 - - - - - - -
21/01:30pm 16.6 SSW 5 7 1030.3 - 0.0 - - - - - - -
21/01:00pm 16.6 SSW 3 5 1030.9 - 0.0 - - - - - - -
21/12:30pm 16.0 SSW 5 8 1031.2 - 0.0 - - - - - - -
21/12:00pm 15.3 S 5 8 1031.5 - 0.0 - - - - - - -
21/11:30am 15.9 NNW 2 5 1031.7 - 0.0 - - - - - - -
21/11:00am 15.8 NW 4 6 1032.0 - 0.0 - - - - - - -
21/10:30am 15.3 NE 3 7 1032.2 - 0.0 - - - - - - -
21/10:00am 13.7 NNE 4 6 1032.5 - 0.0 - - - - - - -
21/09:30am 12.3 NNE 4 6 1032.4 - 0.0 - - - - - - -
21/09:00am 10.9 NE 4 7 1032.1 - 0.0 - - - - - - -
21/08:30am 9.1 NE 7 10 1031.8 - 0.0 - - - - - - -
21/08:00am 7.4 ENE 2 3 1031.6 - 0.0 - - - - - - -
21/07:30am 4.2 E 1 4 1031.4 - 0.0 - - - - - - -
21/07:00am 1.4 CALM 0 0 1031.2 - 0.0 - - - - - - -
21/06:30am 2.7 E 2 2 1031.0 - 0.0 - - - - - - -
21/06:00am 2.6 E 2 2 1030.7 - 0.0 - - - - - - -
21/05:30am 3.8 E 3 4 1030.2 - 0.0 - - - - - - -
21/05:00am 3.5 ESE 2 4 1029.9 - 0.0 - - - - - - -
21/04:30am 4.1 SE 3 3 1030.0 - 0.0 - - - - - - -
21/04:00am 4.4 SE 3 5 1030.1 - 0.0 - - - - - - -
21/03:30am 4.8 SSE 4 5 1030.2 - 0.0 - - - - - - -
21/03:00am 5.1 SSE 5 6 1030.2 - 0.0 - - - - - - -
21/02:30am 4.2 SSE 3 4 1030.0 - 0.0 - - - - - - -
21/02:00am 4.2 SSE 2 2 1030.0 - 0.0 - - - - - - -
21/01:30am 5.1 SSE 3 4 1030.3 - 0.0 - - - - - - -
21/01:00am 5.7 E 2 3 1030.3 - 0.0 - - - - - - -
21/12:30am 6.5 E 5 7 1030.2 - 0.0 - - - - - - -
21/12:00am 6.6 SE 4 5 1030.2 - 0.0 - - - - - - -
 
Date/Time
EST
Temp

°C
Wind Pressure Rain
since 9am
mm
Weather Cloud Vis
km
Sea
Height
m
Swell
Dir
 
Speed
knots
Gust
knots
hPa Trend Height
m
Period
s
Dir
20/11:30pm 6.7 SSE 4 6 1030.4 - 0.0 - - - - - - -
20/11:00pm 7.2 ESE 4 6 1030.3 - 0.0 - - - - - - -
20/10:30pm 7.5 SE 4 6 1030.3 - 0.0 - - - - - - -
20/10:00pm 8.4 SE 3 5 1030.5 - 0.0 - - - - - - -
20/09:30pm 8.9 SSE 5 6 1030.4 - 0.0 - - - - - - -
20/09:00pm 9.4 SE 6 8 1030.1 - 0.0 - - - - - - -
20/08:30pm 10.2 SE 6 10 1030.2 - 0.0 - - - - - - -
20/08:00pm 10.0 SE 6 8 1030.1 - 0.0 - - - - - - -
20/07:30pm 11.2 SE 8 12 1029.8 - 0.0 - - - - - - -
20/07:00pm 11.5 SE 7 12 1029.6 - 0.0 - - - - - - -
20/06:30pm 11.9 SE 9 12 1029.2 - 0.0 - - - - - - -
20/06:00pm 13.2 SSE 9 14 1029.1 - 0.0 - - - - - - -
20/05:30pm 14.0 SSE 9 12 1028.9 - 0.0 - - - - - - -
20/05:00pm 14.3 S 13 17 1028.6 - 0.0 - - - - - - -
20/04:30pm 15.3 S 11 16 1028.3 - 0.0 - - - - - - -
20/04:00pm 15.8 S 11 15 1028.0 - 0.0 - - - - - - -
20/03:30pm 15.9 S 10 15 1027.9 - 0.0 - - - - - - -
20/03:00pm 16.1 S 10 14 1027.8 - 0.0 - - - - - - -
20/02:30pm 16.1 S 10 14 1027.8 - 0.0 - - - - - - -
20/02:00pm 16.5 SSW 8 12 1028.0 - 0.0 - - - - - - -
20/01:30pm 15.6 SSW 6 10 1028.1 - 0.0 - - - - - - -
20/01:00pm 15.4 S 4 7 1028.2 - 0.0 - - - - - - -
20/12:30pm 16.5 ESE 2 4 1028.3 - 0.0 - - - - - - -
20/12:00pm 16.2 ESE 4 8 1028.3 - 0.0 - - - - - - -
20/11:30am 16.1 NE 5 8 1028.4 - 0.0 - - - - - - -
20/11:00am 15.5 ENE 5 8 1028.7 - 0.0 - - - - - - -
20/10:30am 14.6 NE 9 12 1028.8 - 0.0 - - - - - - -
20/10:00am 13.7 NE 8 11 1029.1 - 0.0 - - - - - - -
20/09:30am 12.5 ENE 7 10 1029.3 - 0.0 - - - - - - -
20/09:00am 11.5 ENE 6 10 1029.2 - 0.0 - - - - - - -
20/08:30am 9.7 E 6 10 1029.1 - 0.0 - - - - - - -
20/08:00am 8.3 E 5 7 1028.8 - 0.0 - - - - - - -
20/07:30am 6.2 E 4 6 1028.2 - 0.0 - - - - - - -
20/07:00am 3.8 ENE 2 4 1027.9 - 0.0 - - - - - - -
20/06:30am 4.0 E 4 5 1027.4 - 0.0 - - - - - - -
20/06:00am 3.7 E 4 5 1027.1 - 0.0 - - - - - - -
20/05:30am 3.8 E 3 5 1026.8 - 0.0 - - - - - - -
20/05:00am 4.3 ESE 2 3 1026.5 - 0.0 - - - - - - -
20/04:30am 4.0 ESE 4 5 1026.1 - 0.0 - - - - - - -
20/04:00am 4.2 ESE 4 5 1026.1 - 0.0 - - - - - - -
20/03:30am 4.2 ESE 4 4 1026.1 - 0.0 - - - - - - -
20/03:00am 4.3 ESE 3 4 1025.9 - 0.0 - - - - - - -
20/02:30am 4.4 ESE 4 5 1025.9 - 0.0 - - - - - - -
20/02:00am 4.5 ESE 3 4 1025.9 - 0.0 - - - - - - -
20/01:30am 4.5 E 4 5 1026.1 - 0.0 - - - - - - -
20/01:00am 5.3 E 4 6 1026.0 - 0.0 - - - - - - -
20/12:30am 5.9 E 4 5 1026.1 - 0.0 - - - - - - -
20/12:00am 6.8 E 6 8 1026.0 - 0.0 - - - - - - -
 
Date/Time
EST
Temp

°C
Wind Pressure Rain
since 9am
mm
Weather Cloud Vis
km
Sea
Height
m
Swell
Dir
 
Speed
knots
Gust
knots
hPa Trend Height
m
Period
s
Dir
19/11:30pm 7.2 E 7 10 1026.2 - 0.0 - - - - - - -
19/11:00pm 7.2 E 5 7 1026.4 - 0.0 - - - - - - -
19/10:30pm 6.6 ESE 5 6 1026.5 - 0.0 - - - - - - -
19/10:00pm 6.5 ESE 5 6 1026.6 - 0.0 - - - - - - -
19/09:30pm 6.8 ESE 4 5 1026.6 - 0.0 - - - - - - -
19/09:00pm 7.2 ESE 4 5 1026.6 - 0.0 - - - - - - -
19/08:30pm 7.9 SE 4 5 1026.5 - 0.0 - - - - - - -
19/08:00pm 9.1 SSE 5 7 1026.5 - 0.0 - - - - - - -
19/07:30pm 9.3 SSE 5 7 1026.4 - 0.0 - - - - - - -
19/07:00pm 9.0 SSE 4 5 1026.1 - 0.0 - - - - - - -
19/06:30pm 10.6 S 4 5 1026.1 - 0.0 - - - - - - -
19/06:00pm 12.4 S 6 8 1025.9 - 0.0 - - - - - - -
19/05:30pm 13.4 S 6 9 1025.7 - 0.0 - - - - - - -
19/05:00pm 13.8 SSW 6 8 1025.5 - 0.0 - - - - - - -
19/04:30pm 13.3 SSW 6 10 1025.5 - 0.0 - - - - - - -
19/04:00pm 14.0 SSW 7 11 1025.5 - 0.0 - - - - - - -
19/03:30pm 14.0 SSW 5 7 1025.5 - 0.0 - - - - - - -
19/03:00pm 13.6 SSW 5 9 1025.6 - 0.0 - - - - - - -
19/02:30pm 14.0 WSW 5 8 1025.7 - 0.0 - - - - - - -
19/02:00pm 15.9 WSW 5 9 1025.7 - 0.0 - - - - - - -
19/01:30pm 14.8 WSW 4 8 1025.8 - 0.0 - - - - - - -
19/01:00pm 14.0 S 5 10 1026.2 - 0.0 - - - - - - -
19/12:30pm 14.1 W 3 5 1026.4 - 0.0 - - - - - - -
19/12:00pm 15.5 W 5 9 1026.6 - 0.0 - - - - - - -
19/11:30am 14.5 SW 1 4 1026.8 - 0.0 - - - - - - -
19/11:00am 14.4 ENE 2 4 1027.0 - 0.0 - - - - - - -
19/10:30am 15.0 N 3 7 1027.3 - 0.0 - - - - - - -
19/10:00am 13.9 NE 3 7 1027.3 - 0.0 - - - - - - -
19/09:30am 13.3 NE 5 7 1027.3 - 0.0 - - - - - - -
19/09:00am 11.8 NE 4 5 1027.5 - 0.0 - - - - - - -
19/08:30am 9.7 E 3 4 1027.4 - 0.0 - - - - - - -
19/08:00am 6.7 CALM 0 0 1027.2 - 0.0 - - - - - - -
19/07:30am 5.0 CALM 0 2 1027.0 - 0.0 - - - - - - -
19/07:00am 3.5 E 3 4 1026.7 - 0.0 - - - - - - -
19/06:30am 2.4 E 4 5 1026.3 - 0.0 - - - - - - -
19/06:00am 2.7 E 2 3 1026.1 - 0.0 - - - - - - -
19/05:30am 2.4 E 2 3 1025.9 - 0.0 - - - - - - -
19/05:00am 1.7 CALM 0 0 1025.8 - 0.0 - - - - - - -

Other Formats:

Comma delimited format used in spreadsheet applications
http://www.bom.gov.au/fwo/IDV60701/IDV60701.95816.axf

JavaScript Object Notation format (JSON) in row-major order
http://www.bom.gov.au/fwo/IDV60701/IDV60701.95816.json